createdAt,value
2023-02-19T00:01:36.121Z,74.06
2023-02-19T00:04:06.768Z,73.87
2023-02-19T00:06:35.511Z,73.49
2023-02-19T00:09:03.579Z,72.55
2023-02-19T00:11:32.857Z,72.55
2023-02-19T00:14:02.074Z,72.95
2023-02-19T00:16:32.013Z,73.28
2023-02-19T00:19:00.557Z,73.35
2023-02-19T00:21:28.378Z,74.45
2023-02-19T00:24:01.125Z,74.55
2023-02-19T00:26:28.595Z,74.12
2023-02-19T00:28:56.942Z,74.61
2023-02-19T00:31:33.159Z,74.73
2023-02-19T00:34:05.646Z,75.38
2023-02-19T00:36:36.145Z,75.37
2023-02-19T00:39:04.101Z,75.43
2023-02-19T00:41:31.125Z,74.38
2023-02-19T00:44:00.819Z,74.23
2023-02-19T00:46:50.589Z,73.79
2023-02-19T00:49:22.981Z,73.92
2023-02-19T00:51:52.865Z,74.91
2023-02-19T00:54:20.370Z,74.97
2023-02-19T00:56:47.202Z,75.38
2023-02-19T00:59:15.280Z,75.70
2023-02-19T01:01:44.471Z,75.59
2023-02-19T01:04:11.935Z,75.66
2023-02-19T01:06:38.836Z,75.85
2023-02-19T01:09:07.752Z,75.99
2023-02-19T01:11:35.048Z,75.80
2023-02-19T01:14:03.582Z,75.64
2023-02-19T01:16:31.118Z,75.53
2023-02-19T01:18:58.835Z,75.73
2023-02-19T01:21:27.258Z,76.16
2023-02-19T01:23:55.535Z,76.53
2023-02-19T01:26:26.984Z,76.13
2023-02-19T01:28:54.042Z,76.26
2023-02-19T01:31:23.403Z,76.00
2023-02-19T01:33:53.677Z,75.91
2023-02-19T01:36:21.204Z,75.44
2023-02-19T01:38:49.738Z,75.68
2023-02-19T01:41:19.928Z,75.35
2023-02-19T01:44:05.301Z,76.24
2023-02-19T01:46:34.445Z,76.53
2023-02-19T01:49:14.161Z,76.60
2023-02-19T01:51:45.192Z,76.37
2023-02-19T01:54:15.005Z,76.23
2023-02-19T01:56:44.154Z,76.56
2023-02-19T01:59:11.491Z,76.69
2023-02-19T02:01:39.346Z,77.27
2023-02-19T02:04:10.914Z,77.44
2023-02-19T02:06:56.461Z,76.94
2023-02-19T02:09:46.534Z,77.78
2023-02-19T02:12:13.751Z,77.96
2023-02-19T02:14:45.476Z,78.22
2023-02-19T02:17:12.252Z,78.11
2023-02-19T02:20:10.073Z,78.51
2023-02-19T02:22:53.522Z,79.04
2023-02-19T02:25:48.214Z,78.72
2023-02-19T02:28:26.001Z,79.01
2023-02-19T02:30:56.739Z,78.82
2023-02-19T02:33:50.174Z,78.90
2023-02-19T02:36:20.387Z,79.12
2023-02-19T02:38:49.090Z,78.92
2023-02-19T02:41:16.632Z,79.34
2023-02-19T02:43:43.575Z,78.30
2023-02-19T02:46:12.176Z,78.89
2023-02-19T02:48:46.435Z,77.90
2023-02-19T02:51:20.633Z,78.56
2023-02-19T02:54:35.082Z,78.04
2023-02-19T02:57:03.529Z,78.68
2023-02-19T02:59:37.132Z,79.96
2023-02-19T03:02:19.192Z,80.32
2023-02-19T03:05:25.469Z,80.60
2023-02-19T03:08:15.343Z,81.52
2023-02-19T03:11:24.005Z,80.99
2023-02-19T03:14:22.963Z,80.78
2023-02-19T03:17:15.333Z,80.97
2023-02-19T03:19:45.745Z,81.57
2023-02-19T03:22:22.558Z,81.53
2023-02-19T03:25:15.337Z,81.26
2023-02-19T03:27:44.705Z,81.27
2023-02-19T03:30:23.110Z,81.53
2023-02-19T03:33:01.811Z,81.84
2023-02-19T03:35:34.973Z,81.52
2023-02-19T03:38:09.444Z,81.22
2023-02-19T03:40:46.218Z,80.96
2023-02-19T03:43:18.408Z,80.88
2023-02-19T03:45:55.220Z,80.77
2023-02-19T03:48:30.849Z,81.07
2023-02-19T03:51:20.610Z,81.60
2023-02-19T03:54:02.694Z,81.88
2023-02-19T03:56:50.387Z,81.79
2023-02-19T03:59:28.405Z,82.41
2023-02-19T04:02:08.337Z,82.56
2023-02-19T04:04:39.612Z,82.49
2023-02-19T04:07:07.286Z,82.89
2023-02-19T04:09:38.700Z,83.19
2023-02-19T04:12:07.061Z,83.25
2023-02-19T04:14:43.122Z,83.51
2023-02-19T04:17:16.782Z,83.35
2023-02-19T04:19:44.926Z,83.61
2023-02-19T04:22:13.068Z,84.49
2023-02-19T04:24:51.997Z,83.59
2023-02-19T04:27:19.679Z,83.99
2023-02-19T04:29:46.494Z,83.70
2023-02-19T04:32:14.342Z,84.51
2023-02-19T04:34:41.159Z,84.03
2023-02-19T04:37:08.349Z,84.72
2023-02-19T04:39:35.148Z,85.17
2023-02-19T04:42:02.402Z,84.37
2023-02-19T04:44:29.208Z,84.56
2023-02-19T04:46:56.283Z,84.90
2023-02-19T04:49:23.141Z,85.18
2023-02-19T04:51:50.244Z,84.95
2023-02-19T04:54:17.015Z,84.47
2023-02-19T04:56:44.106Z,84.72
2023-02-19T04:59:10.936Z,84.05
2023-02-19T05:01:38.037Z,84.72
2023-02-19T05:04:05.302Z,83.78
2023-02-19T05:06:32.461Z,83.81
2023-02-19T05:08:59.258Z,84.10
2023-02-19T05:11:26.592Z,83.08
2023-02-19T05:13:55.477Z,83.11
2023-02-19T05:16:22.637Z,83.50
2023-02-19T05:18:49.474Z,83.41
2023-02-19T05:21:16.538Z,83.44
2023-02-19T05:23:43.332Z,82.97
2023-02-19T05:26:17.885Z,83.43
2023-02-19T05:28:46.252Z,83.00
2023-02-19T05:31:14.406Z,82.89
2023-02-19T05:33:43.167Z,83.43
2023-02-19T05:36:13.241Z,83.77
2023-02-19T05:38:41.088Z,83.64
2023-02-19T05:41:19.346Z,83.92
2023-02-19T05:43:48.337Z,83.67
2023-02-19T05:46:17.783Z,84.64
2023-02-19T05:48:44.566Z,85.18
2023-02-19T05:51:14.929Z,86.14
2023-02-19T05:53:43.035Z,86.84
2023-02-19T05:56:40.517Z,87.84
2023-02-19T05:59:19.647Z,88.45
2023-02-19T06:01:47.758Z,89.76
2023-02-19T06:04:15.760Z,90.21
2023-02-19T06:06:43.471Z,90.45
2023-02-19T06:09:10.941Z,91.38
2023-02-19T06:11:38.837Z,91.92
2023-02-19T06:14:06.435Z,93.11
2023-02-19T06:16:34.466Z,94.54
2023-02-19T06:19:05.002Z,96.83
2023-02-19T06:21:32.322Z,98.21
2023-02-19T06:23:59.242Z,97.94
2023-02-19T06:26:26.493Z,96.66
2023-02-19T06:28:54.016Z,98.11
2023-02-19T06:31:22.828Z,100.00
2023-02-19T06:33:50.789Z,100.00
2023-02-19T06:36:20.538Z,100.00
2023-02-19T06:38:47.383Z,100.00
2023-02-19T06:41:14.859Z,100.00
2023-02-19T06:43:42.435Z,100.00
2023-02-19T06:46:12.023Z,100.00
2023-02-19T06:48:40.054Z,100.00
2023-02-19T06:51:14.573Z,100.00
2023-02-19T06:53:41.482Z,100.00
2023-02-19T06:56:22.472Z,100.00
2023-02-19T06:58:49.218Z,100.00
2023-02-19T07:01:16.298Z,100.00
2023-02-19T07:03:43.241Z,100.00
2023-02-19T07:06:10.345Z,100.00
2023-02-19T07:08:37.153Z,100.00
2023-02-19T07:11:04.343Z,100.00
2023-02-19T07:13:31.385Z,100.00
2023-02-19T07:16:00.843Z,100.00
2023-02-19T07:18:28.274Z,100.00
2023-02-19T07:20:55.402Z,100.00
2023-02-19T07:23:22.173Z,100.00
2023-02-19T07:25:49.210Z,100.00
2023-02-19T07:28:16.470Z,100.00
2023-02-19T07:30:43.544Z,100.00
2023-02-19T07:33:10.948Z,100.00
2023-02-19T07:35:38.006Z,100.00
2023-02-19T07:38:04.750Z,100.00
2023-02-19T07:40:31.810Z,100.00
2023-02-19T07:43:00.544Z,100.00
2023-02-19T07:45:27.705Z,100.00
2023-02-19T07:47:54.518Z,100.00
2023-02-19T07:50:21.684Z,100.00
2023-02-19T07:52:48.539Z,100.00
2023-02-19T07:55:15.665Z,100.00
2023-02-19T07:57:42.508Z,100.00
2023-02-19T08:00:10.160Z,100.00
2023-02-19T08:02:55.513Z,100.00
2023-02-19T08:05:22.709Z,100.00
2023-02-19T08:07:49.485Z,100.00
2023-02-19T08:10:35.170Z,100.00
2023-02-19T08:13:22.486Z,100.00
2023-02-19T08:15:51.534Z,100.00
2023-02-19T08:18:22.869Z,100.00
2023-02-19T08:20:50.058Z,100.00
2023-02-19T08:23:17.276Z,100.00
2023-02-19T08:25:44.469Z,100.00
2023-02-19T08:28:11.951Z,100.00
2023-02-19T08:30:41.356Z,100.00
2023-02-19T08:33:08.470Z,100.00
2023-02-19T08:35:36.707Z,100.00
2023-02-19T08:38:05.605Z,100.00
2023-02-19T08:40:33.619Z,100.00
2023-02-19T08:43:09.048Z,100.00
2023-02-19T08:45:37.866Z,100.00
2023-02-19T08:48:05.302Z,100.00
2023-02-19T08:50:32.997Z,100.00
2023-02-19T08:53:00.698Z,100.00
2023-02-19T08:55:27.892Z,100.00
2023-02-19T08:57:55.054Z,100.00
2023-02-19T09:00:22.922Z,100.00
2023-02-19T09:02:50.285Z,100.00
2023-02-19T09:05:17.486Z,100.00
2023-02-19T09:07:44.400Z,100.00
2023-02-19T09:10:13.438Z,100.00
2023-02-19T09:12:43.340Z,100.00
2023-02-19T09:15:13.396Z,100.00
2023-02-19T09:17:40.174Z,100.00
2023-02-19T09:20:07.570Z,100.00
2023-02-19T09:22:35.061Z,100.00
2023-02-19T09:25:02.156Z,100.00
2023-02-19T09:27:31.702Z,100.00
2023-02-19T09:29:59.190Z,100.00
2023-02-19T09:32:26.032Z,100.00
2023-02-19T09:34:53.071Z,100.00
2023-02-19T09:37:19.822Z,100.00
2023-02-19T09:39:46.854Z,100.00
2023-02-19T09:42:16.251Z,100.00
2023-02-19T09:44:48.307Z,100.00
2023-02-19T09:47:35.620Z,100.00
2023-02-19T09:50:09.746Z,100.00
2023-02-19T09:52:36.615Z,100.00
2023-02-19T09:55:28.180Z,100.00
2023-02-19T09:57:56.597Z,100.00
2023-02-19T10:00:31.120Z,100.00
2023-02-19T10:03:02.795Z,100.00
2023-02-19T10:05:30.168Z,100.00
2023-02-19T10:07:58.009Z,100.00
2023-02-19T10:10:34.672Z,100.00
2023-02-19T10:13:19.732Z,100.00
2023-02-19T10:15:50.731Z,100.00
2023-02-19T10:18:23.567Z,100.00
2023-02-19T10:20:52.568Z,100.00
2023-02-19T10:23:19.661Z,100.00
2023-02-19T10:25:54.881Z,100.00
2023-02-19T10:28:24.581Z,100.00
2023-02-19T10:30:55.411Z,100.00
2023-02-19T10:33:23.250Z,100.00
2023-02-19T10:35:56.512Z,100.00
2023-02-19T10:38:39.260Z,100.00
2023-02-19T10:41:12.735Z,99.41
2023-02-19T10:43:43.815Z,100.00
2023-02-19T10:46:21.615Z,99.60
2023-02-19T10:49:00.496Z,95.55
2023-02-19T10:51:36.352Z,96.00
2023-02-19T10:54:07.654Z,94.81
2023-02-19T10:56:35.025Z,92.00
2023-02-19T10:59:22.992Z,90.95
2023-02-19T11:02:15.829Z,88.75
2023-02-19T11:05:01.748Z,87.69
2023-02-19T11:07:29.225Z,85.69
2023-02-19T11:09:57.069Z,83.56
2023-02-19T11:12:27.449Z,81.16
2023-02-19T11:14:54.453Z,79.69
2023-02-19T11:17:27.648Z,76.88
2023-02-19T11:19:58.462Z,75.68
2023-02-19T11:22:40.066Z,76.07
2023-02-19T11:25:15.360Z,75.17
2023-02-19T11:28:08.063Z,75.51
2023-02-19T11:30:39.483Z,74.10
2023-02-19T11:33:24.806Z,74.59
2023-02-19T11:35:59.068Z,75.02
2023-02-19T11:38:26.370Z,74.03
2023-02-19T11:41:19.718Z,72.88
2023-02-19T11:43:58.687Z,71.77
2023-02-19T11:46:49.095Z,71.21
2023-02-19T11:49:43.441Z,70.81
2023-02-19T11:52:30.916Z,71.12
2023-02-19T11:55:22.031Z,69.27
2023-02-19T11:58:03.018Z,68.26
2023-02-19T12:00:33.144Z,67.00
2023-02-19T12:03:29.102Z,66.15
2023-02-19T12:06:09.427Z,65.70
2023-02-19T12:08:57.957Z,64.67
2023-02-19T12:11:25.142Z,64.89
2023-02-19T12:14:19.850Z,65.41
2023-02-19T12:16:59.839Z,65.46
2023-02-19T12:19:26.588Z,65.88
2023-02-19T12:21:54.375Z,66.02
2023-02-19T12:24:50.381Z,67.03
2023-02-19T12:27:26.266Z,69.20
2023-02-19T12:30:20.700Z,69.40
2023-02-19T12:33:19.178Z,69.72
2023-02-19T12:36:04.226Z,69.31
2023-02-19T12:38:44.305Z,70.05
2023-02-19T12:41:29.553Z,69.98
2023-02-19T12:44:04.394Z,69.66
2023-02-19T12:46:47.280Z,70.04
2023-02-19T12:49:37.290Z,73.63
2023-02-19T12:52:11.591Z,81.26
2023-02-19T12:54:42.118Z,92.57
2023-02-19T12:57:08.894Z,96.58
2023-02-19T13:00:18.711Z,92.69
2023-02-19T13:02:51.983Z,87.27
2023-02-19T13:05:32.790Z,88.47
2023-02-19T13:08:04.754Z,87.01
2023-02-19T13:10:55.030Z,84.49
2023-02-19T13:14:06.394Z,84.80
2023-02-19T13:16:38.315Z,85.32
2023-02-19T13:19:05.511Z,84.82
2023-02-19T13:21:54.855Z,85.18
2023-02-19T13:24:27.681Z,87.25
2023-02-19T13:27:03.789Z,90.74
2023-02-19T13:29:55.633Z,89.89
2023-02-19T13:32:37.977Z,92.13
2023-02-19T13:35:11.587Z,95.56
2023-02-19T13:37:39.031Z,97.96
2023-02-19T13:40:36.743Z,99.79
2023-02-19T13:43:07.797Z,100.00
2023-02-19T13:45:42.216Z,100.00
2023-02-19T13:48:24.257Z,100.00
2023-02-19T13:51:17.316Z,100.00
2023-02-19T13:53:51.663Z,100.00
2023-02-19T13:56:36.822Z,100.00
2023-02-19T13:59:25.112Z,100.00
2023-02-19T14:01:51.936Z,100.00
2023-02-19T14:04:40.114Z,100.00
2023-02-19T14:07:06.862Z,100.00
2023-02-19T14:09:44.037Z,100.00
2023-02-19T14:12:10.884Z,100.00
2023-02-19T14:14:37.984Z,100.00
2023-02-19T14:17:12.534Z,100.00
2023-02-19T14:19:42.569Z,100.00
2023-02-19T14:23:01.673Z,99.30
2023-02-19T14:25:31.449Z,98.25
2023-02-19T14:28:10.131Z,95.82
2023-02-19T14:30:48.806Z,92.24
2023-02-19T14:33:23.898Z,90.26
2023-02-19T14:35:56.676Z,88.73
2023-02-19T14:38:38.287Z,88.87
2023-02-19T14:41:06.782Z,87.23
2023-02-19T14:43:35.841Z,88.20
2023-02-19T14:46:23.095Z,87.51
2023-02-19T14:48:50.797Z,88.29
2023-02-19T14:52:05.781Z,89.19
2023-02-19T14:54:50.616Z,89.21
2023-02-19T14:57:22.238Z,88.87
2023-02-19T15:00:22.164Z,90.54
2023-02-19T15:02:51.498Z,91.98
2023-02-19T15:05:23.427Z,91.66
2023-02-19T15:07:53.072Z,92.89
2023-02-19T15:10:20.148Z,93.68
2023-02-19T15:12:57.591Z,93.78
2023-02-19T15:15:33.033Z,93.10
2023-02-19T15:18:01.954Z,93.71
2023-02-19T15:20:37.890Z,95.09
2023-02-19T15:23:07.339Z,94.36
2023-02-19T15:25:36.729Z,94.04
2023-02-19T15:28:25.839Z,94.61
2023-02-19T15:30:58.626Z,95.07
2023-02-19T15:33:27.838Z,95.11
2023-02-19T15:35:57.824Z,95.15
2023-02-19T15:38:25.634Z,95.05
2023-02-19T15:40:53.212Z,96.44
2023-02-19T15:43:44.508Z,96.42
2023-02-19T15:46:19.584Z,96.64
2023-02-19T15:48:58.433Z,96.01
2023-02-19T15:51:50.049Z,96.50
2023-02-19T15:54:26.984Z,95.55
2023-02-19T15:57:00.253Z,95.30
2023-02-19T15:59:42.257Z,95.98
2023-02-19T16:02:14.316Z,94.85
2023-02-19T16:04:45.221Z,95.22
2023-02-19T16:07:29.181Z,95.39
2023-02-19T16:10:16.793Z,95.44
2023-02-19T16:12:43.748Z,95.63
2023-02-19T16:15:20.713Z,96.54
2023-02-19T16:17:47.803Z,95.87
2023-02-19T16:20:24.568Z,96.36
2023-02-19T16:22:52.386Z,96.09
2023-02-19T16:25:44.502Z,96.02
2023-02-19T16:28:22.310Z,98.12
2023-02-19T16:31:00.717Z,99.79
2023-02-19T16:33:40.980Z,100.00
2023-02-19T16:36:46.314Z,100.00
2023-02-19T16:39:16.262Z,100.00
2023-02-19T16:41:46.592Z,100.00
2023-02-19T16:44:25.872Z,100.00
2023-02-19T16:46:57.974Z,100.00
2023-02-19T16:49:24.863Z,100.00
2023-02-19T16:51:52.386Z,100.00
2023-02-19T16:54:19.167Z,100.00
2023-02-19T16:56:46.273Z,100.00
2023-02-19T16:59:13.070Z,100.00
2023-02-19T17:01:40.202Z,100.00
2023-02-19T17:04:10.141Z,100.00
2023-02-19T17:06:40.474Z,100.00
2023-02-19T17:09:08.688Z,100.00
2023-02-19T17:11:38.615Z,100.00
2023-02-19T17:14:05.450Z,100.00
2023-02-19T17:16:40.241Z,100.00
2023-02-19T17:19:18.269Z,100.00
2023-02-19T17:21:46.715Z,100.00
2023-02-19T17:24:13.969Z,100.00
2023-02-19T17:26:41.499Z,100.00
2023-02-19T17:29:15.005Z,100.00
2023-02-19T17:31:42.069Z,100.00
2023-02-19T17:34:09.039Z,100.00
2023-02-19T17:36:38.059Z,100.00
2023-02-19T17:39:12.017Z,100.00
2023-02-19T17:41:39.171Z,100.00
2023-02-19T17:44:05.914Z,100.00
2023-02-19T17:46:34.000Z,100.00
2023-02-19T17:49:00.823Z,100.00
2023-02-19T17:51:28.399Z,100.00
2023-02-19T17:53:55.170Z,100.00
2023-02-19T17:56:25.459Z,100.00
2023-02-19T17:58:53.506Z,100.00
2023-02-19T18:01:21.552Z,100.00
2023-02-19T18:03:48.379Z,100.00
2023-02-19T18:06:15.588Z,100.00
2023-02-19T18:08:50.867Z,100.00
2023-02-19T18:11:19.084Z,100.00
2023-02-19T18:13:46.155Z,100.00
2023-02-19T18:16:15.631Z,100.00
2023-02-19T18:18:43.014Z,100.00
2023-02-19T18:21:11.674Z,100.00
2023-02-19T18:23:39.305Z,100.00
2023-02-19T18:26:11.159Z,100.00
2023-02-19T18:28:38.666Z,100.00
2023-02-19T18:31:06.246Z,100.00
2023-02-19T18:33:34.784Z,100.00
2023-02-19T18:36:05.035Z,100.00
2023-02-19T18:38:32.048Z,100.00
2023-02-19T18:40:59.138Z,100.00
2023-02-19T18:43:26.100Z,100.00
2023-02-19T18:45:53.287Z,100.00
2023-02-19T18:48:20.186Z,100.00
2023-02-19T18:50:47.510Z,100.00
2023-02-19T18:53:14.423Z,100.00
2023-02-19T18:55:41.724Z,100.00
2023-02-19T18:58:08.633Z,100.00
2023-02-19T19:00:35.958Z,100.00
2023-02-19T19:03:02.802Z,100.00
2023-02-19T19:05:30.133Z,100.00
2023-02-19T19:07:59.465Z,100.00
2023-02-19T19:10:26.834Z,100.00
2023-02-19T19:12:54.410Z,100.00
2023-02-19T19:15:22.461Z,100.00
2023-02-19T19:17:49.628Z,100.00
2023-02-19T19:20:21.808Z,100.00
2023-02-19T19:22:51.846Z,100.00
2023-02-19T19:25:21.892Z,100.00
2023-02-19T19:27:52.137Z,100.00
2023-02-19T19:30:20.234Z,100.00
2023-02-19T19:32:52.092Z,100.00
2023-02-19T19:35:20.544Z,100.00
2023-02-19T19:37:47.718Z,100.00
2023-02-19T19:40:17.492Z,100.00
2023-02-19T19:42:44.747Z,100.00
2023-02-19T19:45:12.456Z,100.00
2023-02-19T19:47:39.328Z,100.00
2023-02-19T19:50:06.665Z,100.00
2023-02-19T19:52:33.512Z,100.00
2023-02-19T19:55:00.859Z,100.00
2023-02-19T19:57:27.646Z,100.00
2023-02-19T19:59:54.778Z,100.00
2023-02-19T20:02:22.803Z,100.00
2023-02-19T20:04:50.186Z,100.00
2023-02-19T20:07:17.100Z,100.00
2023-02-19T20:09:47.677Z,100.00
2023-02-19T20:12:14.510Z,100.00
2023-02-19T20:14:45.767Z,100.00
2023-02-19T20:17:13.108Z,100.00
2023-02-19T20:19:40.263Z,100.00
2023-02-19T20:22:07.100Z,100.00
2023-02-19T20:24:34.286Z,100.00
2023-02-19T20:27:02.842Z,100.00
2023-02-19T20:29:33.079Z,98.36
2023-02-19T20:32:00.561Z,98.36
2023-02-19T20:34:28.243Z,95.18
2023-02-19T20:36:55.162Z,92.13
2023-02-19T20:39:22.681Z,92.31
2023-02-19T20:41:51.853Z,91.17
2023-02-19T20:44:19.386Z,90.52
2023-02-19T20:46:52.212Z,88.96
2023-02-19T20:49:22.306Z,88.90
2023-02-19T20:52:00.881Z,86.85
2023-02-19T20:54:30.470Z,86.39
2023-02-19T20:57:00.643Z,85.52
2023-02-19T20:59:31.289Z,85.27
2023-02-19T21:01:59.002Z,86.21
2023-02-19T21:04:26.674Z,85.06
2023-02-19T21:06:53.574Z,85.90
2023-02-19T21:09:21.986Z,85.95
2023-02-19T21:11:49.227Z,87.05
2023-02-19T21:14:16.807Z,85.72
2023-02-19T21:16:43.836Z,85.55
2023-02-19T21:19:11.088Z,84.13
2023-02-19T21:21:40.232Z,83.14
2023-02-19T21:24:08.907Z,83.10
2023-02-19T21:26:38.041Z,82.16
2023-02-19T21:29:07.284Z,82.12
2023-02-19T21:31:40.250Z,82.16
2023-02-19T21:34:09.821Z,80.90
2023-02-19T21:36:36.998Z,81.12
2023-02-19T21:39:06.429Z,80.51
2023-02-19T21:41:33.534Z,79.55
2023-02-19T21:44:00.753Z,78.14
2023-02-19T21:46:27.827Z,76.98
2023-02-19T21:48:56.105Z,74.93
2023-02-19T21:51:29.507Z,74.59
2023-02-19T21:53:56.627Z,73.19
2023-02-19T21:56:35.072Z,72.79
2023-02-19T21:59:06.102Z,71.57
2023-02-19T22:01:38.548Z,72.07
2023-02-19T22:04:07.192Z,70.98
2023-02-19T22:06:34.807Z,70.57
2023-02-19T22:09:01.986Z,70.34
2023-02-19T22:11:29.040Z,70.98
2023-02-19T22:13:56.128Z,70.05
2023-02-19T22:16:23.727Z,70.44
2023-02-19T22:18:55.985Z,69.23
2023-02-19T22:21:25.035Z,69.73
2023-02-19T22:23:53.673Z,69.49
2023-02-19T22:26:29.006Z,68.11
2023-02-19T22:28:56.556Z,69.50
2023-02-19T22:31:24.838Z,69.22
2023-02-19T22:33:52.328Z,70.25
2023-02-19T22:36:22.251Z,69.90
2023-02-19T22:38:49.839Z,69.53
2023-02-19T22:41:17.772Z,69.07
2023-02-19T22:43:45.334Z,66.72
2023-02-19T22:46:15.694Z,66.87
2023-02-19T22:48:42.931Z,68.29
2023-02-19T22:51:15.027Z,67.57
2023-02-19T22:53:52.442Z,68.31
2023-02-19T22:56:21.133Z,67.53
2023-02-19T22:58:48.497Z,67.83
2023-02-19T23:01:15.896Z,67.29
2023-02-19T23:03:54.983Z,66.86
2023-02-19T23:06:30.333Z,66.39
2023-02-19T23:09:01.945Z,65.69
2023-02-19T23:11:32.380Z,64.91
2023-02-19T23:13:59.808Z,65.11
2023-02-19T23:16:27.041Z,64.53
2023-02-19T23:18:54.595Z,64.21
2023-02-19T23:21:22.824Z,63.98
2023-02-19T23:23:50.465Z,64.49
2023-02-19T23:26:17.319Z,64.31
2023-02-19T23:28:45.040Z,65.08
2023-02-19T23:31:13.055Z,64.46
2023-02-19T23:33:40.341Z,65.80
2023-02-19T23:36:08.401Z,65.71
2023-02-19T23:38:35.774Z,66.16
2023-02-19T23:41:03.492Z,66.35
2023-02-19T23:43:30.536Z,66.22
2023-02-19T23:45:57.458Z,65.60
2023-02-19T23:48:24.520Z,65.46
2023-02-19T23:50:51.601Z,65.36
2023-02-19T23:53:18.719Z,66.09
2023-02-19T23:55:45.492Z,66.50
2023-02-19T23:58:12.666Z,67.08
